createdAt,value
2023-03-02T00:00:16.707Z,83.0
2023-03-02T00:01:17.182Z,83.1
2023-03-02T00:02:16.856Z,83.0
2023-03-02T00:03:17.431Z,83.0
2023-03-02T00:04:16.939Z,83.1
2023-03-02T00:05:17.431Z,82.7
2023-03-02T00:06:16.954Z,82.7
2023-03-02T00:07:17.441Z,82.9
2023-03-02T00:08:17.009Z,82.8
2023-03-02T00:09:16.474Z,82.8
2023-03-02T00:10:17.009Z,82.8
2023-03-02T00:11:16.497Z,82.7
2023-03-02T00:12:17.233Z,82.6
2023-03-02T00:13:16.721Z,82.7
2023-03-02T00:14:17.287Z,82.8
2023-03-02T00:15:16.802Z,82.9
2023-03-02T00:16:17.432Z,82.8
2023-03-02T00:17:16.967Z,82.8
2023-03-02T00:18:16.471Z,82.7
2023-03-02T00:19:17.039Z,82.7
2023-03-02T00:20:16.547Z,82.8
2023-03-02T00:21:17.051Z,83.1
2023-03-02T00:22:16.635Z,83.8
2023-03-02T00:23:17.129Z,83.6
2023-03-02T00:24:16.684Z,83.5
2023-03-02T00:25:17.235Z,83.4
2023-03-02T00:26:16.748Z,83.5
2023-03-02T00:27:17.258Z,83.6
2023-03-02T00:28:16.811Z,84.2
2023-03-02T00:29:17.333Z,84.0
2023-03-02T00:30:16.862Z,84.1
2023-03-02T00:31:17.475Z,84.3
2023-03-02T00:32:17.125Z,84.2
2023-03-02T00:33:16.604Z,84.3
2023-03-02T00:34:17.123Z,84.4
2023-03-02T00:35:16.652Z,84.3
2023-03-02T00:36:17.181Z,84.1
2023-03-02T00:37:16.664Z,84.0
2023-03-02T00:38:17.155Z,84.4
2023-03-02T00:39:16.682Z,84.4
2023-03-02T00:40:17.176Z,84.4
2023-03-02T00:41:16.676Z,84.4
2023-03-02T00:42:17.407Z,84.2
2023-03-02T00:43:16.929Z,84.9
2023-03-02T00:44:17.443Z,84.8
2023-03-02T00:45:17.013Z,84.6
2023-03-02T00:46:16.532Z,84.5
2023-03-02T00:47:17.094Z,84.6
2023-03-02T00:48:16.602Z,84.6
2023-03-02T00:49:17.107Z,84.5
2023-03-02T00:50:16.616Z,84.4
2023-03-02T00:51:17.190Z,85.1
2023-03-02T00:52:16.525Z,84.9
2023-03-02T00:53:17.026Z,84.6
2023-03-02T00:54:16.538Z,84.5
2023-03-02T00:55:17.079Z,84.7
2023-03-02T00:56:16.571Z,84.9
2023-03-02T00:57:17.050Z,84.8
2023-03-02T00:58:16.556Z,84.6
2023-03-02T00:59:17.105Z,84.8
2023-03-02T01:00:16.636Z,84.7
2023-03-02T01:01:18.989Z,84.9
2023-03-02T01:02:17.284Z,84.8
2023-03-02T01:03:16.952Z,85.0
2023-03-02T01:04:16.599Z,84.8
2023-03-02T01:05:17.122Z,84.7
2023-03-02T01:06:16.636Z,84.7
2023-03-02T01:07:17.205Z,84.8
2023-03-02T01:08:16.708Z,84.9
2023-03-02T01:09:17.205Z,85.6
2023-03-02T01:10:16.697Z,86.0
2023-03-02T01:11:17.257Z,85.4
2023-03-02T01:12:16.573Z,85.4
2023-03-02T01:13:17.080Z,85.4
2023-03-02T01:14:16.594Z,85.4
2023-03-02T01:15:17.088Z,85.5
2023-03-02T01:16:16.697Z,85.2
2023-03-02T01:17:17.239Z,85.4
2023-03-02T01:18:16.748Z,85.1
2023-03-02T01:19:17.249Z,84.8
2023-03-02T01:20:16.758Z,84.9
2023-03-02T01:21:17.308Z,85.0
2023-03-02T01:22:17.015Z,85.0
2023-03-02T01:23:16.513Z,84.5
2023-03-02T01:24:17.077Z,84.2
2023-03-02T01:25:16.588Z,84.1
2023-03-02T01:26:17.234Z,84.2
2023-03-02T01:27:16.731Z,84.2
2023-03-02T01:28:17.202Z,84.3
2023-03-02T01:29:16.739Z,84.3
2023-03-02T01:30:17.248Z,84.3
2023-03-02T01:31:16.788Z,84.4
2023-03-02T01:32:17.336Z,84.6
2023-03-02T01:33:16.885Z,84.6
2023-03-02T01:34:17.404Z,84.7
2023-03-02T01:35:16.931Z,85.2
2023-03-02T01:36:17.426Z,85.6
2023-03-02T01:37:16.937Z,86.1
2023-03-02T01:38:17.554Z,85.9
2023-03-02T01:39:17.063Z,85.4
2023-03-02T01:40:16.571Z,85.1
2023-03-02T01:41:17.088Z,85.1
2023-03-02T01:42:17.461Z,84.9
2023-03-02T01:43:16.975Z,85.1
2023-03-02T01:44:16.624Z,85.1
2023-03-02T01:45:17.103Z,85.3
2023-03-02T01:46:16.609Z,85.3
2023-03-02T01:47:17.144Z,85.4
2023-03-02T01:48:16.697Z,85.4
2023-03-02T01:49:17.249Z,85.5
2023-03-02T01:50:16.741Z,85.5
2023-03-02T01:51:17.271Z,85.5
2023-03-02T01:52:16.561Z,85.8
2023-03-02T01:53:17.126Z,85.6
2023-03-02T01:54:16.604Z,85.9
2023-03-02T01:55:17.135Z,85.8
2023-03-02T01:56:16.614Z,86.1
2023-03-02T01:57:17.122Z,85.8
2023-03-02T01:58:16.639Z,85.9
2023-03-02T01:59:17.170Z,85.8
2023-03-02T02:00:16.664Z,85.8
2023-03-02T02:01:17.285Z,85.8
2023-03-02T02:02:17.154Z,85.9
2023-03-02T02:03:16.682Z,86.1
2023-03-02T02:04:17.243Z,86.2
2023-03-02T02:05:16.780Z,86.1
2023-03-02T02:06:17.285Z,86.2
2023-03-02T02:07:16.756Z,86.1
2023-03-02T02:08:17.272Z,86.2
2023-03-02T02:09:16.742Z,86.2
2023-03-02T02:10:17.230Z,86.1
2023-03-02T02:11:16.765Z,86.1
2023-03-02T02:12:16.479Z,86.2
2023-03-02T02:13:17.013Z,86.9
2023-03-02T02:14:16.533Z,86.7
2023-03-02T02:15:17.039Z,86.7
2023-03-02T02:16:16.687Z,87.0
2023-03-02T02:17:17.256Z,87.2
2023-03-02T02:18:16.782Z,87.4
2023-03-02T02:19:17.280Z,87.0
2023-03-02T02:20:16.784Z,87.0
2023-03-02T02:21:17.275Z,87.2
2023-03-02T02:22:16.766Z,87.0
2023-03-02T02:23:17.322Z,87.0
2023-03-02T02:24:16.834Z,87.0
2023-03-02T02:25:17.365Z,87.3
2023-03-02T02:26:16.857Z,87.3
2023-03-02T02:27:17.365Z,87.2
2023-03-02T02:28:16.856Z,87.3
2023-03-02T02:29:17.349Z,87.4
2023-03-02T02:30:16.843Z,87.4
2023-03-02T02:31:17.496Z,87.4
2023-03-02T02:32:17.614Z,87.1
2023-03-02T02:33:17.193Z,87.2
2023-03-02T02:34:16.699Z,87.1
2023-03-02T02:35:17.210Z,87.0
2023-03-02T02:36:16.702Z,86.9
2023-03-02T02:37:17.214Z,86.9
2023-03-02T02:38:16.741Z,86.9
2023-03-02T02:39:17.240Z,86.9
2023-03-02T02:40:16.720Z,87.1
2023-03-02T02:41:17.284Z,87.4
2023-03-02T02:42:16.722Z,87.3
2023-03-02T02:43:17.316Z,87.4
2023-03-02T02:44:16.835Z,87.4
2023-03-02T02:45:17.333Z,87.3
2023-03-02T02:46:17.047Z,87.4
2023-03-02T02:47:16.593Z,87.5
2023-03-02T02:48:17.118Z,87.5
2023-03-02T02:49:16.652Z,87.5
2023-03-02T02:50:17.140Z,87.8
2023-03-02T02:51:16.671Z,87.8
2023-03-02T02:52:17.279Z,87.8
2023-03-02T02:53:16.804Z,87.5
2023-03-02T02:54:17.314Z,87.5
2023-03-02T02:55:16.833Z,87.9
2023-03-02T02:56:17.336Z,87.9
2023-03-02T02:57:16.814Z,87.8
2023-03-02T02:58:17.381Z,87.8
2023-03-02T02:59:16.870Z,88.0
2023-03-02T03:00:17.379Z,87.8
2023-03-02T03:01:17.065Z,87.6
2023-03-02T03:02:17.487Z,87.4
2023-03-02T03:03:17.064Z,87.3
2023-03-02T03:04:16.663Z,87.2
2023-03-02T03:05:17.189Z,87.2
2023-03-02T03:06:16.717Z,87.2
2023-03-02T03:07:17.207Z,87.2
2023-03-02T03:08:16.739Z,87.2
2023-03-02T03:09:17.288Z,87.2
2023-03-02T03:10:16.826Z,87.2
2023-03-02T03:11:17.373Z,87.2
2023-03-02T03:12:16.959Z,87.2
2023-03-02T03:13:17.452Z,87.2
2023-03-02T03:14:17.019Z,87.6
2023-03-02T03:15:16.525Z,87.8
2023-03-02T03:16:17.098Z,87.8
2023-03-02T03:17:16.613Z,87.8
2023-03-02T03:18:17.151Z,87.8
2023-03-02T03:19:16.630Z,87.7
2023-03-02T03:20:17.157Z,88.1
2023-03-02T03:21:16.654Z,88.1
2023-03-02T03:22:17.379Z,88.0
2023-03-02T03:23:16.866Z,87.9
2023-03-02T03:24:17.344Z,87.8
2023-03-02T03:25:16.842Z,87.7
2023-03-02T03:26:17.346Z,87.7
2023-03-02T03:27:16.884Z,87.9
2023-03-02T03:28:17.409Z,88.3
2023-03-02T03:29:16.909Z,88.1
2023-03-02T03:30:17.435Z,87.8
2023-03-02T03:31:17.148Z,88.0
2023-03-02T03:32:16.780Z,87.7
2023-03-02T03:33:17.313Z,87.4
2023-03-02T03:34:16.803Z,87.3
2023-03-02T03:35:17.325Z,87.6
2023-03-02T03:36:16.813Z,87.5
2023-03-02T03:37:17.315Z,87.5
2023-03-02T03:38:16.810Z,87.5
2023-03-02T03:39:17.300Z,87.5
2023-03-02T03:40:16.820Z,87.6
2023-03-02T03:41:17.372Z,87.7
2023-03-02T03:42:16.625Z,87.6
2023-03-02T03:43:17.144Z,87.5
2023-03-02T03:44:16.729Z,87.6
2023-03-02T03:45:17.260Z,87.5
2023-03-02T03:46:16.836Z,87.6
2023-03-02T03:47:17.392Z,87.5
2023-03-02T03:48:16.887Z,87.7
2023-03-02T03:49:17.405Z,87.9
2023-03-02T03:50:16.901Z,88.0
2023-03-02T03:51:17.418Z,87.9
2023-03-02T03:52:17.157Z,87.9
2023-03-02T03:53:16.712Z,87.9
2023-03-02T03:54:17.217Z,88.4
2023-03-02T03:55:16.716Z,88.4
2023-03-02T03:56:17.227Z,88.3
2023-03-02T03:57:16.733Z,88.2
2023-03-02T03:58:17.373Z,88.1
2023-03-02T03:59:16.851Z,88.1
2023-03-02T04:00:17.437Z,88.3
2023-03-02T04:01:17.025Z,88.4
2023-03-02T04:02:16.801Z,88.3
2023-03-02T04:03:17.333Z,88.2
2023-03-02T04:04:16.847Z,88.1
2023-03-02T04:05:17.376Z,88.1
2023-03-02T04:06:16.865Z,88.1
2023-03-02T04:07:17.440Z,88.2
2023-03-02T04:08:16.959Z,88.3
2023-03-02T04:09:16.452Z,88.2
2023-03-02T04:10:16.952Z,88.2
2023-03-02T04:11:17.458Z,88.6
2023-03-02T04:12:16.884Z,88.4
2023-03-02T04:13:17.479Z,88.6
2023-03-02T04:14:16.979Z,88.5
2023-03-02T04:15:16.619Z,88.4
2023-03-02T04:16:17.254Z,88.4
2023-03-02T04:17:16.741Z,88.3
2023-03-02T04:18:17.224Z,88.3
2023-03-02T04:19:16.726Z,88.2
2023-03-02T04:20:17.259Z,88.2
2023-03-02T04:21:16.774Z,88.2
2023-03-02T04:22:17.222Z,88.6
2023-03-02T04:23:16.752Z,88.6
2023-03-02T04:24:17.324Z,88.6
2023-03-02T04:25:16.841Z,88.6
2023-03-02T04:26:17.368Z,88.7
2023-03-02T04:27:16.859Z,88.6
2023-03-02T04:28:17.991Z,88.7
2023-03-02T04:29:16.549Z,88.5
2023-03-02T04:30:17.042Z,88.6
2023-03-02T04:31:16.918Z,88.6
2023-03-02T04:32:17.230Z,88.6
2023-03-02T04:33:16.742Z,88.7
2023-03-02T04:34:17.258Z,88.6
2023-03-02T04:35:16.764Z,88.6
2023-03-02T04:36:17.311Z,88.7
2023-03-02T04:37:16.827Z,88.9
2023-03-02T04:38:17.401Z,88.7
2023-03-02T04:39:16.929Z,88.7
2023-03-02T04:40:17.464Z,88.7
2023-03-02T04:41:16.961Z,88.8
2023-03-02T04:42:17.405Z,89.2
2023-03-02T04:43:16.893Z,89.0
2023-03-02T04:44:17.411Z,88.9
2023-03-02T04:45:16.928Z,88.7
2023-03-02T04:46:17.539Z,88.7
2023-03-02T04:47:17.057Z,88.7
2023-03-02T04:48:16.569Z,88.8
2023-03-02T04:49:17.062Z,89.4
2023-03-02T04:50:16.610Z,88.6
2023-03-02T04:51:17.106Z,87.8
2023-03-02T04:52:16.767Z,87.7
2023-03-02T04:53:17.302Z,87.6
2023-03-02T04:54:16.824Z,87.7
2023-03-02T04:55:17.328Z,87.7
2023-03-02T04:56:16.824Z,87.8
2023-03-02T04:57:17.322Z,87.8
2023-03-02T04:58:16.823Z,87.9
2023-03-02T04:59:17.381Z,88.0
2023-03-02T05:00:16.866Z,88.0
2023-03-02T05:01:17.361Z,88.3
2023-03-02T05:02:17.026Z,88.1
2023-03-02T05:03:16.562Z,87.8
2023-03-02T05:04:17.159Z,87.8
2023-03-02T05:05:16.648Z,87.8
2023-03-02T05:06:17.157Z,87.8
2023-03-02T05:07:16.646Z,87.7
2023-03-02T05:08:17.175Z,87.9
2023-03-02T05:09:16.663Z,88.0
2023-03-02T05:10:17.152Z,88.1
2023-03-02T05:11:16.621Z,88.0
2023-03-02T05:12:17.263Z,88.1
2023-03-02T05:13:16.784Z,88.1
2023-03-02T05:14:17.263Z,88.2
2023-03-02T05:15:16.792Z,88.4
2023-03-02T05:16:17.396Z,88.3
2023-03-02T05:17:16.921Z,88.3
2023-03-02T05:18:17.502Z,88.0
2023-03-02T05:19:17.004Z,87.9
2023-03-02T05:20:16.514Z,87.8
2023-03-02T05:21:17.030Z,87.7
2023-03-02T05:22:16.794Z,87.4
2023-03-02T05:23:17.279Z,87.4
2023-03-02T05:24:16.765Z,87.3
2023-03-02T05:25:17.303Z,87.0
2023-03-02T05:26:16.768Z,85.7
2023-03-02T05:27:17.274Z,86.0
2023-03-02T05:28:16.776Z,86.4
2023-03-02T05:29:17.281Z,86.4
2023-03-02T05:30:16.793Z,86.4
2023-03-02T05:31:17.339Z,86.4
2023-03-02T05:32:17.009Z,87.0
2023-03-02T05:33:16.508Z,87.1
2023-03-02T05:34:17.017Z,87.2
2023-03-02T05:35:16.550Z,86.6
2023-03-02T05:36:29.091Z,86.6
2023-03-02T05:37:16.578Z,86.6
2023-03-02T05:38:17.081Z,86.7
2023-03-02T05:39:16.571Z,86.8
2023-03-02T05:40:17.052Z,86.8
2023-03-02T05:41:16.543Z,87.1
2023-03-02T05:42:17.317Z,87.2
2023-03-02T05:43:16.848Z,87.2
2023-03-02T05:44:17.356Z,87.1
2023-03-02T05:45:16.898Z,87.1
2023-03-02T05:46:17.956Z,86.8
2023-03-02T05:47:17.200Z,86.8
2023-03-02T05:48:16.701Z,86.5
2023-03-02T05:49:17.193Z,86.1
2023-03-02T05:50:16.697Z,86.1
2023-03-02T05:51:17.194Z,85.9
2023-03-02T05:52:16.705Z,85.9
2023-03-02T05:53:17.189Z,85.7
2023-03-02T05:54:16.703Z,85.7
2023-03-02T05:55:17.186Z,85.7
2023-03-02T05:56:16.709Z,85.2
2023-03-02T05:57:17.194Z,84.6
2023-03-02T05:58:16.730Z,84.7
2023-03-02T05:59:17.231Z,84.7
2023-03-02T06:00:16.777Z,84.7
2023-03-02T06:01:17.268Z,84.6
2023-03-02T06:02:17.067Z,84.6
2023-03-02T06:03:16.764Z,84.3
2023-03-02T06:04:17.266Z,84.2
2023-03-02T06:05:16.755Z,83.8
2023-03-02T06:06:17.254Z,83.7
2023-03-02T06:07:16.729Z,83.8
2023-03-02T06:08:17.193Z,83.9
2023-03-02T06:09:16.699Z,83.9
2023-03-02T06:10:17.241Z,83.7
2023-03-02T06:11:16.775Z,83.5
2023-03-02T06:12:17.069Z,83.3
2023-03-02T06:13:16.592Z,83.2
2023-03-02T06:14:17.096Z,83.2
2023-03-02T06:15:16.632Z,83.3
2023-03-02T06:16:17.218Z,83.3
2023-03-02T06:17:16.697Z,82.8
2023-03-02T06:18:17.186Z,82.6
2023-03-02T06:19:16.666Z,82.8
2023-03-02T06:20:17.163Z,82.8
2023-03-02T06:21:16.645Z,82.8
2023-03-02T06:22:17.177Z,82.8
2023-03-02T06:23:16.692Z,82.1
2023-03-02T06:24:17.245Z,82.1
2023-03-02T06:25:16.785Z,82.2
2023-03-02T06:26:17.314Z,82.3
2023-03-02T06:27:16.821Z,82.1
2023-03-02T06:28:17.367Z,81.9
2023-03-02T06:29:16.885Z,81.7
2023-03-02T06:30:17.398Z,81.9
2023-03-02T06:31:16.991Z,81.9
2023-03-02T06:32:16.955Z,82.0
2023-03-02T06:33:16.592Z,82.0
2023-03-02T06:34:17.083Z,81.9
2023-03-02T06:35:16.842Z,81.7
2023-03-02T06:36:17.573Z,81.3
2023-03-02T06:37:17.127Z,81.3
2023-03-02T06:38:16.635Z,81.2
2023-03-02T06:39:17.159Z,81.3
2023-03-02T06:40:16.703Z,81.0
2023-03-02T06:41:17.186Z,80.9
2023-03-02T06:42:16.563Z,80.7
2023-03-02T06:43:17.064Z,80.6
2023-03-02T06:44:16.605Z,80.5
2023-03-02T06:45:17.160Z,80.7
2023-03-02T06:46:16.884Z,80.5
2023-03-02T06:47:17.436Z,80.4
2023-03-02T06:48:16.959Z,80.3
2023-03-02T06:49:17.462Z,80.1
2023-03-02T06:50:16.955Z,79.9
2023-03-02T06:51:17.468Z,79.9
2023-03-02T06:52:17.078Z,79.8
2023-03-02T06:53:16.576Z,79.5
2023-03-02T06:54:17.095Z,79.6
2023-03-02T06:55:16.595Z,79.6
2023-03-02T06:56:17.073Z,79.1
2023-03-02T06:57:16.563Z,79.1
2023-03-02T06:58:17.037Z,79.1
2023-03-02T06:59:16.526Z,79.2
2023-03-02T07:00:17.049Z,78.7
2023-03-02T07:01:16.649Z,78.8
2023-03-02T07:02:17.454Z,78.6
2023-03-02T07:03:17.092Z,78.6
2023-03-02T07:04:16.675Z,78.3
2023-03-02T07:05:17.187Z,77.8
2023-03-02T07:06:16.675Z,77.4
2023-03-02T07:07:17.163Z,77.6
2023-03-02T07:08:16.703Z,77.5
2023-03-02T07:09:17.263Z,76.9
2023-03-02T07:10:16.857Z,76.7
2023-03-02T07:11:17.329Z,76.5
2023-03-02T07:12:16.956Z,76.6
2023-03-02T07:13:17.521Z,76.1
2023-03-02T07:14:17.076Z,76.1
2023-03-02T07:15:16.561Z,76.2
2023-03-02T07:16:17.164Z,76.3
2023-03-02T07:17:16.685Z,75.5
2023-03-02T07:18:17.193Z,75.2
2023-03-02T07:19:16.691Z,75.8
2023-03-02T07:20:17.187Z,75.0
2023-03-02T07:21:16.683Z,74.8
2023-03-02T07:22:17.411Z,74.8
2023-03-02T07:23:16.931Z,74.5
2023-03-02T07:24:17.424Z,73.7
2023-03-02T07:25:16.940Z,73.8
2023-03-02T07:26:17.435Z,73.3
2023-03-02T07:27:16.940Z,73.4
2023-03-02T07:28:17.492Z,72.7
2023-03-02T07:29:16.989Z,73.7
2023-03-02T07:30:16.495Z,73.5
2023-03-02T07:31:17.204Z,73.6
2023-03-02T07:32:17.011Z,73.0
2023-03-02T07:33:16.542Z,73.0
2023-03-02T07:34:17.043Z,73.2
2023-03-02T07:35:16.546Z,73.2
2023-03-02T07:36:17.055Z,72.5
2023-03-02T07:37:16.562Z,72.4
2023-03-02T07:38:17.055Z,72.8
2023-03-02T07:39:16.551Z,72.5
2023-03-02T07:40:17.069Z,72.0
2023-03-02T07:41:16.562Z,71.7
2023-03-02T07:42:17.078Z,71.8
2023-03-02T07:43:16.574Z,71.4
2023-03-02T07:44:17.061Z,71.7
2023-03-02T07:45:16.560Z,71.3
2023-03-02T07:46:17.181Z,71.2
2023-03-02T07:47:16.701Z,71.3
2023-03-02T07:48:17.216Z,71.2
2023-03-02T07:49:16.732Z,71.0
2023-03-02T07:50:17.259Z,71.0
2023-03-02T07:51:16.745Z,70.6
2023-03-02T07:52:17.256Z,70.5
2023-03-02T07:53:16.817Z,70.8
2023-03-02T07:54:17.336Z,70.3
2023-03-02T07:55:16.844Z,70.5
2023-03-02T07:56:17.352Z,70.8
2023-03-02T07:57:16.873Z,70.3
2023-03-02T07:58:17.401Z,69.8
2023-03-02T07:59:16.884Z,70.6
2023-03-02T08:00:17.431Z,70.6
2023-03-02T08:01:16.926Z,70.6
2023-03-02T08:02:16.516Z,70.9
2023-03-02T08:03:17.052Z,70.0
2023-03-02T08:04:16.544Z,69.3
2023-03-02T08:05:17.091Z,69.3
2023-03-02T08:06:16.567Z,69.2
2023-03-02T08:07:17.080Z,69.0
2023-03-02T08:08:16.593Z,68.5
2023-03-02T08:09:17.312Z,68.7
2023-03-02T08:10:16.827Z,69.5
2023-03-02T08:11:17.356Z,69.1
2023-03-02T08:12:16.689Z,68.5
2023-03-02T08:13:17.158Z,69.1
2023-03-02T08:14:16.698Z,69.1
2023-03-02T08:15:17.196Z,69.4
2023-03-02T08:16:16.848Z,69.6
2023-03-02T08:17:17.426Z,69.3
2023-03-02T08:18:16.923Z,68.7
2023-03-02T08:19:17.450Z,69.9
2023-03-02T08:20:16.970Z,69.9
2023-03-02T08:21:16.496Z,69.4
2023-03-02T08:22:17.181Z,69.0
2023-03-02T08:23:16.672Z,69.0
2023-03-02T08:24:17.198Z,69.1
2023-03-02T08:25:16.708Z,69.0
2023-03-02T08:26:17.812Z,68.2
2023-03-02T08:27:17.298Z,67.8
2023-03-02T08:28:16.800Z,67.8
2023-03-02T08:29:17.345Z,67.3
2023-03-02T08:30:16.839Z,65.9
2023-03-02T08:31:17.480Z,65.8
2023-03-02T08:32:16.969Z,66.6
2023-03-02T08:33:16.533Z,67.2
2023-03-02T08:34:17.047Z,67.6
2023-03-02T08:35:16.588Z,67.7
2023-03-02T08:36:17.073Z,67.5
2023-03-02T08:37:16.581Z,67.5
2023-03-02T08:38:17.059Z,66.6
2023-03-02T08:39:16.592Z,66.5
2023-03-02T08:40:17.100Z,65.7
2023-03-02T08:41:16.606Z,65.2
2023-03-02T08:42:17.440Z,65.5
2023-03-02T08:43:16.947Z,65.2
2023-03-02T08:44:17.475Z,64.6
2023-03-02T08:45:16.964Z,63.8
2023-03-02T08:46:17.641Z,63.5
2023-03-02T08:47:17.186Z,62.9
2023-03-02T08:48:16.710Z,61.8
2023-03-02T08:49:17.218Z,63.1
2023-03-02T08:50:16.728Z,63.5
2023-03-02T08:51:17.297Z,64.5
2023-03-02T08:52:16.659Z,63.9
2023-03-02T08:53:17.137Z,63.3
2023-03-02T08:54:16.644Z,62.2
2023-03-02T08:55:17.253Z,63.5
2023-03-02T08:56:16.755Z,63.5
2023-03-02T08:57:17.255Z,63.4
2023-03-02T08:58:16.764Z,63.5
2023-03-02T08:59:17.277Z,63.3
2023-03-02T09:00:16.792Z,63.4
2023-03-02T09:01:17.472Z,61.6
2023-03-02T09:02:16.819Z,60.7
2023-03-02T09:03:17.373Z,60.9
2023-03-02T09:04:16.992Z,60.3
2023-03-02T09:05:16.557Z,61.8
2023-03-02T09:06:17.040Z,61.8
2023-03-02T09:07:16.807Z,61.1
2023-03-02T09:08:17.294Z,60.9
2023-03-02T09:09:16.786Z,60.3
2023-03-02T09:10:17.315Z,60.7
2023-03-02T09:11:16.857Z,61.3
2023-03-02T09:12:16.810Z,61.0
2023-03-02T09:13:17.334Z,61.0
2023-03-02T09:14:16.851Z,61.4
2023-03-02T09:15:17.350Z,61.9
2023-03-02T09:16:16.935Z,62.0
2023-03-02T09:17:16.472Z,61.2
2023-03-02T09:18:16.969Z,61.4
2023-03-02T09:19:16.484Z,61.7
2023-03-02T09:20:16.975Z,61.0
2023-03-02T09:21:16.474Z,60.6
2023-03-02T09:22:17.097Z,60.6
2023-03-02T09:23:16.608Z,60.5
2023-03-02T09:24:17.092Z,59.7
2023-03-02T09:25:16.611Z,61.1
2023-03-02T09:26:17.140Z,61.8
2023-03-02T09:27:16.865Z,62.0
2023-03-02T09:28:17.418Z,60.6
2023-03-02T09:29:16.935Z,60.0
2023-03-02T09:30:17.438Z,60.0
2023-03-02T09:31:16.900Z,60.0
2023-03-02T09:32:17.199Z,60.6
2023-03-02T09:33:16.904Z,61.5
2023-03-02T09:34:17.445Z,61.2
2023-03-02T09:35:16.933Z,61.3
2023-03-02T09:36:17.468Z,61.2
2023-03-02T09:37:16.962Z,60.7
2023-03-02T09:38:17.590Z,59.4
2023-03-02T09:39:17.084Z,59.6
2023-03-02T09:40:16.623Z,59.2
2023-03-02T09:41:17.146Z,58.9
2023-03-02T09:42:16.686Z,58.5
2023-03-02T09:43:17.185Z,59.1
2023-03-02T09:44:16.675Z,58.1
2023-03-02T09:45:17.207Z,58.0
2023-03-02T09:46:16.852Z,57.5
2023-03-02T09:47:35.377Z,56.7
2023-03-02T09:48:16.969Z,57.9
2023-03-02T09:49:17.457Z,58.2
2023-03-02T09:50:16.947Z,58.0
2023-03-02T09:51:17.460Z,57.8
2023-03-02T09:52:17.282Z,58.3
2023-03-02T09:53:16.788Z,58.2
2023-03-02T09:54:20.821Z,58.0
2023-03-02T09:55:17.454Z,58.6
2023-03-02T09:56:17.000Z,58.6
2023-03-02T09:57:16.541Z,59.6
2023-03-02T09:58:17.020Z,59.5
2023-03-02T09:59:16.528Z,59.3
2023-03-02T10:00:20.597Z,58.9
2023-03-02T10:01:17.367Z,59.7
2023-03-02T10:02:17.312Z,59.6
2023-03-02T10:03:18.017Z,58.6
2023-03-02T10:04:16.915Z,58.7
2023-03-02T10:05:16.443Z,58.3
2023-03-02T10:06:16.963Z,59.1
2023-03-02T10:07:16.490Z,58.3
2023-03-02T10:08:17.024Z,58.0
2023-03-02T10:09:16.611Z,58.5
2023-03-02T10:10:17.110Z,59.0
2023-03-02T10:11:16.630Z,58.3
2023-03-02T10:12:17.410Z,57.5
2023-03-02T10:13:16.900Z,57.5
2023-03-02T10:14:17.444Z,56.7
2023-03-02T10:15:16.998Z,56.4
2023-03-02T10:16:16.638Z,57.9
2023-03-02T10:17:17.154Z,57.8
2023-03-02T10:18:16.712Z,57.3
2023-03-02T10:19:17.237Z,56.7
2023-03-02T10:20:16.738Z,57.1
2023-03-02T10:21:17.227Z,57.9
2023-03-02T10:22:16.739Z,57.2
2023-03-02T10:23:17.258Z,58.4
2023-03-02T10:24:16.764Z,58.5
2023-03-02T10:25:17.267Z,57.9
2023-03-02T10:26:16.787Z,57.2
2023-03-02T10:27:17.404Z,56.4
2023-03-02T10:28:16.958Z,56.6
2023-03-02T10:29:17.439Z,57.5
2023-03-02T10:30:16.966Z,56.8
2023-03-02T10:31:17.627Z,56.2
2023-03-02T10:32:17.404Z,56.8
2023-03-02T10:33:16.933Z,57.0
2023-03-02T10:34:17.470Z,56.6
2023-03-02T10:35:17.103Z,55.9
2023-03-02T10:36:17.521Z,56.2
2023-03-02T10:37:17.302Z,55.5
2023-03-02T10:38:16.905Z,55.3
2023-03-02T10:39:17.402Z,54.0
2023-03-02T10:40:16.930Z,54.4
2023-03-02T10:41:17.475Z,54.1
2023-03-02T10:42:17.121Z,54.1
2023-03-02T10:43:16.635Z,53.3
2023-03-02T10:44:17.120Z,53.4
2023-03-02T10:45:16.638Z,53.9
2023-03-02T10:46:17.318Z,55.0
2023-03-02T10:47:20.205Z,56.4
2023-03-02T10:48:16.766Z,56.5
2023-03-02T10:49:21.290Z,55.9
2023-03-02T10:50:16.794Z,58.3
2023-03-02T10:51:17.296Z,58.0
2023-03-02T10:52:16.907Z,56.6
2023-03-02T10:53:17.441Z,56.0
2023-03-02T10:54:16.964Z,55.2
2023-03-02T10:55:17.459Z,54.3
2023-03-02T10:56:16.990Z,55.8
2023-03-02T10:57:16.511Z,56.5
2023-03-02T10:58:17.012Z,56.2
2023-03-02T10:59:16.498Z,55.4
2023-03-02T11:00:17.114Z,55.3
2023-03-02T11:01:16.747Z,55.2
2023-03-02T11:02:16.848Z,55.5
2023-03-02T11:03:17.387Z,55.1
2023-03-02T11:04:17.026Z,55.0
2023-03-02T11:05:16.577Z,54.5
2023-03-02T11:06:17.108Z,54.5
2023-03-02T11:07:16.580Z,53.8
2023-03-02T11:08:17.191Z,55.3
2023-03-02T11:09:16.740Z,54.9
2023-03-02T11:10:17.320Z,54.9
2023-03-02T11:11:16.965Z,56.4
2023-03-02T11:12:17.338Z,55.8
2023-03-02T11:13:16.850Z,55.5
2023-03-02T11:14:17.394Z,55.2
2023-03-02T11:15:16.941Z,54.6
2023-03-02T11:16:17.704Z,54.3
2023-03-02T11:17:17.311Z,54.8
2023-03-02T11:18:16.801Z,55.1
2023-03-02T11:19:17.341Z,54.7
2023-03-02T11:20:16.852Z,54.6
2023-03-02T11:21:17.426Z,55.3
2023-03-02T11:22:16.657Z,55.2
2023-03-02T11:23:17.136Z,55.3
2023-03-02T11:24:16.637Z,55.6
2023-03-02T11:25:17.139Z,55.0
2023-03-02T11:26:16.643Z,55.1
2023-03-02T11:27:17.145Z,54.8
2023-03-02T11:28:16.678Z,54.8
2023-03-02T11:29:17.181Z,55.5
2023-03-02T11:30:16.692Z,55.6
2023-03-02T11:31:17.286Z,55.2
2023-03-02T11:32:17.314Z,56.2
2023-03-02T11:33:16.861Z,55.8
2023-03-02T11:34:18.839Z,57.5
2023-03-02T11:35:17.598Z,57.1
2023-03-02T11:36:17.112Z,57.4
2023-03-02T11:37:16.616Z,57.1
2023-03-02T11:38:17.128Z,56.6
2023-03-02T11:39:16.670Z,56.3
2023-03-02T11:40:17.198Z,55.6
2023-03-02T11:41:16.681Z,55.4
2023-03-02T11:42:16.629Z,55.6
2023-03-02T11:43:17.178Z,55.6
2023-03-02T11:44:16.707Z,55.4
2023-03-02T11:45:17.223Z,55.4
2023-03-02T11:46:23.772Z,56.0
2023-03-02T11:47:17.251Z,56.1
2023-03-02T11:48:16.758Z,56.4
2023-03-02T11:49:17.233Z,57.1
2023-03-02T11:50:16.730Z,57.3
2023-03-02T11:51:17.212Z,57.0
2023-03-02T11:52:17.212Z,56.5
2023-03-02T11:53:16.789Z,56.4
2023-03-02T11:54:17.311Z,56.6
2023-03-02T11:55:16.852Z,56.9
2023-03-02T11:56:17.374Z,57.0
2023-03-02T11:57:16.887Z,56.9
2023-03-02T11:58:17.411Z,56.2
2023-03-02T11:59:16.899Z,56.3
2023-03-02T12:00:17.480Z,56.5
2023-03-02T12:01:17.023Z,56.1
2023-03-02T12:02:16.963Z,56.5
2023-03-02T12:03:16.770Z,56.6
2023-03-02T12:04:17.232Z,57.6
2023-03-02T12:05:16.874Z,57.6
2023-03-02T12:06:17.396Z,57.5
2023-03-02T12:07:16.916Z,58.5
2023-03-02T12:08:17.418Z,58.8
2023-03-02T12:09:17.046Z,58.6
2023-03-02T12:10:16.598Z,58.2
2023-03-02T12:11:17.118Z,58.5
2023-03-02T12:12:16.731Z,58.8
2023-03-02T12:13:17.255Z,58.5
2023-03-02T12:14:16.750Z,58.7
2023-03-02T12:15:17.274Z,58.7
2023-03-02T12:16:16.804Z,58.8
2023-03-02T12:17:17.590Z,58.9
2023-03-02T12:18:17.131Z,58.9
2023-03-02T12:19:16.684Z,59.1
2023-03-02T12:20:17.182Z,59.1
2023-03-02T12:21:16.710Z,59.3
2023-03-02T12:22:16.592Z,59.5
2023-03-02T12:23:17.082Z,59.5
2023-03-02T12:24:16.591Z,59.2
2023-03-02T12:25:17.095Z,59.1
2023-03-02T12:26:16.595Z,59.1
2023-03-02T12:27:17.106Z,58.9
2023-03-02T12:28:16.699Z,59.2
2023-03-02T12:29:17.310Z,59.3
2023-03-02T12:30:17.032Z,59.5
2023-03-02T12:31:16.689Z,59.3
2023-03-02T12:32:17.103Z,59.2
2023-03-02T12:33:16.682Z,59.5
2023-03-02T12:34:17.216Z,59.6
2023-03-02T12:35:16.722Z,59.8
2023-03-02T12:36:17.219Z,59.8
2023-03-02T12:37:16.714Z,59.6
2023-03-02T12:38:17.291Z,59.6
2023-03-02T12:39:16.904Z,59.7
2023-03-02T12:40:17.413Z,59.9
2023-03-02T12:41:16.970Z,59.8
2023-03-02T12:42:16.559Z,59.9
2023-03-02T12:43:17.121Z,59.8
2023-03-02T12:44:16.661Z,59.8
2023-03-02T12:45:17.147Z,59.9
2023-03-02T12:46:16.815Z,59.8
2023-03-02T12:47:18.558Z,59.9
2023-03-02T12:48:17.343Z,59.9
2023-03-02T12:49:16.855Z,59.8
2023-03-02T12:50:17.346Z,59.9
2023-03-02T12:51:17.168Z,59.9
2023-03-02T12:52:17.308Z,59.7
2023-03-02T12:53:16.889Z,59.7
2023-03-02T12:54:17.430Z,59.8
2023-03-02T12:55:16.917Z,59.7
2023-03-02T12:56:17.629Z,59.5
2023-03-02T12:57:17.202Z,59.5
2023-03-02T12:58:16.723Z,59.5
2023-03-02T12:59:17.250Z,59.6
2023-03-02T13:00:16.756Z,59.7
2023-03-02T13:01:17.509Z,59.8
2023-03-02T13:02:16.821Z,59.9
2023-03-02T13:03:17.353Z,60.0
2023-03-02T13:04:16.942Z,60.1
2023-03-02T13:05:17.463Z,59.9
2023-03-02T13:06:20.512Z,60.1
2023-03-02T13:07:17.119Z,60.2
2023-03-02T13:08:16.662Z,60.0
2023-03-02T13:09:17.172Z,60.0
2023-03-02T13:10:16.760Z,60.0
2023-03-02T13:11:17.303Z,59.9
2023-03-02T13:12:16.842Z,59.9
2023-03-02T13:13:17.489Z,59.6
2023-03-02T13:14:16.978Z,59.7
2023-03-02T13:15:16.499Z,60.0
2023-03-02T13:16:17.085Z,59.8
2023-03-02T13:17:16.591Z,59.7
2023-03-02T13:18:17.093Z,59.8